Time;durP1;ratioP1;P1;durP2;ratioP2;P2;SDS_P1;SDS_P2;PMS_P1;PMS_P2;Temp;Humidity;BMP_temperature;BMP_pressure;BME280_temperature;BME280_humidity;BME280_pressure;Samples;Min_cycle;Max_cycle;Signal;HPM_P1;HPM_P2
2021/12/31 00:00:13;;;;;;;7.00;3.88;;;13.10;99.90;;;;;;4938212;29;20481;-85
2021/12/31 00:02:39;;;;;;;7.72;3.55;;;13.10;99.90;;;;;;4954990;29;20039;-84
2021/12/31 00:05:07;;;;;;;9.90;4.45;;;13.10;99.90;;;;;;4954168;28;20457;-85
2021/12/31 00:07:33;;;;;;;4.93;3.60;;;13.10;99.90;;;;;;4955245;29;20385;-86
2021/12/31 00:10:01;;;;;;;5.85;3.03;;;13.20;99.90;;;;;;4956850;29;20035;-85
2021/12/31 00:12:27;;;;;;;3.70;3.40;;;13.20;99.90;;;;;;4955095;29;20051;-85
2021/12/31 00:14:54;;;;;;;5.68;3.95;;;13.10;99.90;;;;;;4954790;29;20035;-84
2021/12/31 00:17:20;;;;;;;2.90;2.30;;;13.20;99.90;;;;;;4955125;29;20047;-85
2021/12/31 00:19:48;;;;;;;6.72;4.00;;;13.20;99.90;;;;;;4954594;29;20047;-85
2021/12/31 00:24:59;;;;;;;4.05;3.40;;;13.20;99.90;;;;;;4954365;29;20039;-86
2021/12/31 00:27:26;;;;;;;4.53;4.03;;;13.20;99.90;;;;;;4955149;29;20039;-85
2021/12/31 00:29:52;;;;;;;6.97;2.83;;;13.20;99.90;;;;;;4921202;29;20039;-82
2021/12/31 00:32:18;;;;;;;4.30;3.15;;;13.20;99.90;;;;;;4955082;29;20039;-85
2021/12/31 00:34:45;;;;;;;5.30;3.13;;;13.10;99.90;;;;;;4954614;29;20036;-84
2021/12/31 00:37:11;;;;;;;5.90;3.15;;;13.10;99.90;;;;;;4955612;29;20053;-86
2021/12/31 00:39:38;;;;;;;6.03;3.13;;;13.10;99.90;;;;;;4937331;29;20039;-85
2021/12/31 00:42:04;;;;;;;4.13;3.70;;;13.10;99.90;;;;;;4956259;29;20469;-85
2021/12/31 00:44:30;;;;;;;7.47;4.13;;;13.00;99.90;;;;;;4955696;29;20046;-84
2021/12/31 00:46:56;;;;;;;8.82;4.43;;;13.00;99.90;;;;;;4973678;29;20296;-84
2021/12/31 00:49:22;;;;;;;17.17;3.65;;;13.10;99.90;;;;;;4977892;29;20051;-84
2021/12/31 00:51:49;;;;;;;13.82;6.13;;;13.00;99.90;;;;;;4962339;28;20050;-85
2021/12/31 00:54:15;;;;;;;11.65;5.32;;;13.10;99.90;;;;;;4954523;29;20035;-86
2021/12/31 00:56:41;;;;;;;7.68;4.68;;;13.00;99.90;;;;;;4953779;29;20381;-85
2021/12/31 00:59:07;;;;;;;8.35;4.57;;;13.00;99.90;;;;;;4937472;29;20031;-85
2021/12/31 01:01:35;;;;;;;13.02;4.18;;;13.00;99.90;;;;;;4954334;29;20043;-85
2021/12/31 01:04:02;;;;;;;5.28;3.67;;;13.00;99.90;;;;;;4937082;29;20039;-87
2021/12/31 01:06:28;;;;;;;5.00;3.95;;;13.00;99.90;;;;;;4954683;29;20035;-86
2021/12/31 01:08:54;;;;;;;8.48;4.03;;;13.00;99.90;;;;;;4953737;29;20381;-87
2021/12/31 01:11:20;;;;;;;5.40;4.03;;;13.00;99.90;;;;;;4954484;29;20035;-87
2021/12/31 01:13:57;;;;;;;4.32;2.92;;;13.00;99.90;;;;;;4953643;29;20042;-86
2021/12/31 01:16:34;;;;;;;6.18;3.30;;;13.00;99.90;;;;;;4957390;28;20048;-86
2021/12/31 01:21:27;;;;;;;4.53;3.50;;;13.00;99.90;;;;;;4958064;29;20373;-86
2021/12/31 01:23:57;;;;;;;7.47;3.85;;;12.90;99.90;;;;;;4939878;29;20048;-88
2021/12/31 01:26:24;;;;;;;5.07;3.53;;;12.90;99.90;;;;;;4959393;29;20050;-85
2021/12/31 01:28:50;;;;;;;14.82;7.10;;;12.90;99.90;;;;;;4957473;29;20043;-86
2021/12/31 01:31:16;;;;;;;7.75;5.03;;;12.80;99.90;;;;;;4958499;29;20035;-85
2021/12/31 01:33:42;;;;;;;13.75;10.95;;;12.60;99.90;;;;;;4957087;29;20035;-84
2021/12/31 01:36:09;;;;;;;23.73;12.32;;;12.50;99.90;;;;;;4957899;29;20038;-84
2021/12/31 01:38:36;;;;;;;11.05;8.02;;;12.40;99.90;;;;;;4958431;29;20050;-86
2021/12/31 01:41:02;;;;;;;9.07;7.82;;;12.40;99.90;;;;;;4958681;29;20031;-86
2021/12/31 01:43:29;;;;;;;10.38;6.45;;;12.40;99.90;;;;;;4943265;29;20052;-85
2021/12/31 01:45:59;;;;;;;5.18;3.08;;;12.30;99.90;;;;;;4958619;29;20042;-86
2021/12/31 01:48:34;;;;;;;4.47;3.45;;;12.30;99.90;;;;;;4958235;29;20035;-85
2021/12/31 01:51:01;;;;;;;8.95;5.95;;;12.30;99.90;;;;;;4957145;29;20058;-86
2021/12/31 01:53:28;;;;;;;4.43;3.20;;;12.30;99.90;;;;;;4957456;29;20031;-85
2021/12/31 01:56:01;;;;;;;5.35;2.45;;;12.40;99.90;;;;;;4956844;29;20035;-86
2021/12/31 01:58:29;;;;;;;4.20;2.75;;;12.40;99.90;;;;;;4959329;29;20071;-86
2021/12/31 02:01:03;;;;;;;6.43;2.75;;;12.40;99.90;;;;;;4956379;29;20481;-86
2021/12/31 02:03:31;;;;;;;4.50;2.72;;;12.50;99.90;;;;;;4956938;29;20099;-86
2021/12/31 02:05:58;;;;;;;6.07;2.30;;;12.40;99.90;;;;;;4938782;29;20043;-86
2021/12/31 02:08:24;;;;;;;6.40;3.05;;;12.40;99.90;;;;;;4956755;29;20498;-86
2021/12/31 02:10:52;;;;;;;4.25;2.72;;;12.40;99.90;;;;;;4956372;29;20438;-86
2021/12/31 02:13:19;;;;;;;3.22;2.70;;;12.40;99.90;;;;;;4956515;29;20393;-85
2021/12/31 02:15:45;;;;;;;6.55;2.95;;;12.40;99.90;;;;;;4955979;29;20043;-85
2021/12/31 02:18:12;;;;;;;9.43;2.85;;;12.40;99.90;;;;;;4957254;29;20031;-86
2021/12/31 02:20:43;;;;;;;3.60;2.75;;;12.40;99.90;;;;;;4959271;29;20047;-86
2021/12/31 02:23:16;;;;;;;5.22;2.97;;;12.40;99.90;;;;;;4956805;29;20039;-85
2021/12/31 02:25:42;;;;;;;2.53;2.33;;;12.40;99.90;;;;;;4956671;29;20035;-86
2021/12/31 02:28:09;;;;;;;3.60;2.53;;;12.40;99.90;;;;;;4956246;28;20042;-86
2021/12/31 02:30:35;;;;;;;6.10;2.97;;;12.40;99.90;;;;;;4939504;29;20040;-86
2021/12/31 02:33:03;;;;;;;4.22;2.53;;;12.30;99.90;;;;;;4956450;29;20461;-86
2021/12/31 02:35:30;;;;;;;4.60;2.78;;;12.30;99.90;;;;;;4964309;29;20062;-85
2021/12/31 02:37:57;;;;;;;5.38;2.78;;;12.30;99.90;;;;;;4954232;29;20035;-86
2021/12/31 02:40:24;;;;;;;4.32;2.58;;;12.30;99.90;;;;;;4974712;29;20029;-86
2021/12/31 02:42:50;;;;;;;4.28;2.83;;;12.30;99.90;;;;;;4976685;29;20031;-85
2021/12/31 02:45:17;;;;;;;4.70;2.67;;;12.30;99.90;;;;;;4975483;29;20031;-86
2021/12/31 02:47:46;;;;;;;2.60;2.40;;;12.30;99.90;;;;;;4963497;29;20027;-86
2021/12/31 02:50:14;;;;;;;4.68;2.92;;;12.30;99.90;;;;;;4943019;29;20408;-85
2021/12/31 02:52:41;;;;;;;6.07;2.78;;;12.30;99.90;;;;;;4958167;29;20039;-86
2021/12/31 02:55:09;;;;;;;4.38;2.50;;;12.30;99.90;;;;;;4956073;29;20137;-86
2021/12/31 02:57:38;;;;;;;2.95;2.20;;;12.30;99.90;;;;;;4940262;29;20047;-86
2021/12/31 03:00:06;;;;;;;8.50;3.55;;;12.30;99.90;;;;;;4938961;29;20047;-85
2021/12/31 03:02:36;;;;;;;45.83;36.25;;;12.30;99.90;;;;;;4957313;29;20038;-86
2021/12/31 03:05:02;;;;;;;32.78;24.48;;;12.40;99.90;;;;;;4955898;29;20032;-86
2021/12/31 03:07:33;;;;;;;201.57;155.60;;;12.40;99.90;;;;;;4956554;29;20031;-86
2021/12/31 03:10:01;;;;;;;106.78;69.97;;;12.30;99.90;;;;;;4974490;29;20045;-85
2021/12/31 03:12:27;;;;;;;42.25;32.72;;;12.30;99.90;;;;;;4955807;29;20037;-86
2021/12/31 03:14:54;;;;;;;27.33;16.25;;;12.20;99.90;;;;;;4961059;29;20038;-86
2021/12/31 03:17:20;;;;;;;43.75;38.13;;;12.30;99.90;;;;;;4944183;29;20047;-86
2021/12/31 03:19:47;;;;;;;14.27;11.38;;;12.20;99.90;;;;;;4958381;29;20050;-84
2021/12/31 03:22:13;;;;;;;113.72;87.75;;;12.20;99.90;;;;;;4938841;29;20406;-85
2021/12/31 03:24:39;;;;;;;15.75;8.38;;;12.20;99.90;;;;;;4955956;29;20031;-86
2021/12/31 03:27:05;;;;;;;20.48;8.00;;;12.20;99.90;;;;;;4955208;29;20035;-88
2021/12/31 03:29:32;;;;;;;10.73;9.55;;;12.20;99.90;;;;;;4938643;29;20050;-89
2021/12/31 03:31:58;;;;;;;7.88;6.97;;;12.10;99.90;;;;;;4954970;29;20038;-87
2021/12/31 03:34:24;;;;;;;6.97;3.70;;;12.20;99.90;;;;;;4955395;29;20036;-86
2021/12/31 03:36:50;;;;;;;10.88;5.25;;;12.20;99.90;;;;;;4937482;29;20039;-87
2021/12/31 03:39:16;;;;;;;7.50;6.68;;;12.20;99.90;;;;;;4955868;28;20472;-87
2021/12/31 03:41:44;;;;;;;60.08;53.28;;;12.20;99.90;;;;;;4955805;29;20393;-86
2021/12/31 03:44:11;;;;;;;18.77;16.63;;;12.20;99.90;;;;;;4954728;29;20035;-86
2021/12/31 03:46:37;;;;;;;8.38;7.43;;;12.20;99.90;;;;;;4949956;29;20373;-85
2021/12/31 03:49:03;;;;;;;10.07;8.77;;;12.20;99.90;;;;;;4959890;29;20470;-84
2021/12/31 03:51:29;;;;;;;4.68;4.22;;;12.10;99.90;;;;;;4955326;29;20031;-87
2021/12/31 03:53:55;;;;;;;4.55;2.50;;;12.10;99.90;;;;;;4954665;29;20054;-86
2021/12/31 03:56:23;;;;;;;9.20;5.30;;;12.00;99.90;;;;;;4955366;29;20377;-87
2021/12/31 03:58:49;;;;;;;5.03;3.72;;;12.00;99.90;;;;;;4954713;29;20039;-87
2021/12/31 04:01:16;;;;;;;3.17;2.33;;;12.00;99.90;;;;;;4954883;29;20046;-88
2021/12/31 04:03:42;;;;;;;8.15;6.05;;;11.90;99.90;;;;;;4955456;29;20039;-86
2021/12/31 04:06:08;;;;;;;5.13;4.28;;;12.00;99.90;;;;;;4957507;29;20591;-86
2021/12/31 04:08:34;;;;;;;7.50;5.15;;;11.90;99.90;;;;;;4955509;29;20377;-86
2021/12/31 04:11:00;;;;;;;6.20;2.75;;;11.90;99.90;;;;;;4954860;29;20035;-86
2021/12/31 04:13:26;;;;;;;9.13;4.57;;;11.90;99.90;;;;;;4955632;29;20039;-86
2021/12/31 04:15:53;;;;;;;11.38;5.75;;;11.80;99.90;;;;;;4954557;29;20031;-85
2021/12/31 04:18:19;;;;;;;8.13;6.82;;;11.80;99.90;;;;;;4959118;29;20043;-86
2021/12/31 04:20:48;;;;;;;11.90;8.65;;;11.80;99.90;;;;;;4967662;29;20485;-86
2021/12/31 04:23:26;;;;;;;8.98;3.85;;;11.70;99.90;;;;;;4968451;29;20042;-86
2021/12/31 04:25:52;;;;;;;4.28;3.75;;;11.70;99.90;;;;;;4976996;29;20041;-78
2021/12/31 04:28:18;;;;;;;7.22;3.72;;;11.80;99.90;;;;;;4979031;29;20024;-84
2021/12/31 04:30:44;;;;;;;8.00;4.63;;;11.70;99.90;;;;;;4971940;29;20040;-86
2021/12/31 04:33:11;;;;;;;10.45;8.52;;;11.70;99.90;;;;;;4955960;29;20053;-86
2021/12/31 04:35:37;;;;;;;17.60;16.02;;;11.70;99.90;;;;;;4957057;29;20040;-86
2021/12/31 04:38:03;;;;;;;6.40;5.22;;;11.70;99.90;;;;;;4957786;29;20059;-85
2021/12/31 04:40:29;;;;;;;13.77;10.85;;;11.70;99.90;;;;;;4956186;29;20047;-84
2021/12/31 04:42:56;;;;;;;16.67;11.88;;;11.70;99.90;;;;;;4954645;29;20034;-84
2021/12/31 04:45:23;;;;;;;5.93;4.78;;;11.60;99.90;;;;;;4955730;29;20580;-85
2021/12/31 04:47:49;;;;;;;23.05;20.73;;;11.60;99.90;;;;;;4955809;29;20039;-85
2021/12/31 04:50:15;;;;;;;17.67;15.27;;;11.60;99.90;;;;;;4955388;28;20481;-85
2021/12/31 04:52:41;;;;;;;23.80;21.38;;;11.60;99.90;;;;;;4960954;28;20050;-86
2021/12/31 04:55:09;;;;;;;10.38;6.10;;;11.60;99.90;;;;;;4960576;29;20042;-85
2021/12/31 04:57:35;;;;;;;5.97;4.40;;;11.60;99.90;;;;;;4946617;28;20039;-86
2021/12/31 05:00:02;;;;;;;19.58;17.45;;;11.60;99.90;;;;;;4963631;28;20035;-86
2021/12/31 05:02:28;;;;;;;10.60;7.22;;;11.60;99.90;;;;;;4961733;29;20047;-87
2021/12/31 05:04:55;;;;;;;21.17;18.92;;;11.60;99.90;;;;;;4960932;29;20035;-86
2021/12/31 05:07:21;;;;;;;10.95;9.85;;;11.60;99.90;;;;;;4962420;28;20404;-86
2021/12/31 05:09:47;;;;;;;8.45;7.63;;;11.60;99.90;;;;;;4944733;29;20044;-87
2021/12/31 05:12:19;;;;;;;5.68;3.20;;;11.60;99.90;;;;;;4961267;28;20035;-86
2021/12/31 05:14:47;;;;;;;8.43;4.57;;;11.60;99.90;;;;;;4962321;29;20031;-86
2021/12/31 05:17:13;;;;;;;12.73;8.55;;;11.60;99.90;;;;;;4961229;28;20046;-86
2021/12/31 05:19:43;;;;;;;4.07;2.70;;;11.60;99.90;;;;;;4961317;29;20038;-86
2021/12/31 05:22:13;;;;;;;2.75;1.90;;;11.60;99.90;;;;;;4960396;28;20496;-86
2021/12/31 05:24:41;;;;;;;4.63;4.10;;;11.60;99.90;;;;;;4961131;29;20040;-84
2021/12/31 05:27:08;;;;;;;3.38;2.40;;;11.60;99.90;;;;;;4942946;29;20046;-86
2021/12/31 05:29:35;;;;;;;11.35;10.38;;;11.60;99.90;;;;;;4943792;29;20035;-86
2021/12/31 05:32:01;;;;;;;15.35;8.85;;;11.60;99.90;;;;;;4960433;28;20062;-86
2021/12/31 05:34:28;;;;;;;6.00;4.03;;;11.60;99.90;;;;;;4960545;29;20042;-87
2021/12/31 05:36:54;;;;;;;25.77;23.17;;;11.50;99.90;;;;;;4960423;28;20384;-80
2021/12/31 05:39:20;;;;;;;13.20;7.53;;;11.50;99.90;;;;;;4943388;29;20050;-86
2021/12/31 05:41:46;;;;;;;18.75;13.73;;;11.50;99.90;;;;;;4944023;29;20047;-87
2021/12/31 05:44:13;;;;;;;26.85;20.27;;;11.50;99.90;;;;;;4960250;28;20031;-87
2021/12/31 05:46:44;;;;;;;20.38;17.65;;;11.50;99.90;;;;;;4961165;28;20062;-86
2021/12/31 05:49:10;;;;;;;;;;;11.50;99.90;;;;;;4960593;28;20047;-86
2021/12/31 05:51:36;;;;;;;9.32;8.38;;;11.50;99.90;;;;;;4961180;28;19957;-86
2021/12/31 05:54:02;;;;;;;6.25;5.65;;;11.50;99.90;;;;;;4927772;29;20054;-86
2021/12/31 05:56:28;;;;;;;48.03;37.90;;;11.50;99.90;;;;;;4961792;29;20034;-87
2021/12/31 05:58:55;;;;;;;28.48;24.42;;;11.50;99.90;;;;;;4961568;29;20035;-87
2021/12/31 06:01:21;;;;;;;24.98;17.85;;;11.50;99.90;;;;;;4960719;28;20050;-87
2021/12/31 06:03:47;;;;;;;7.25;5.43;;;11.50;99.90;;;;;;4957116;29;20488;-88
2021/12/31 06:06:13;;;;;;;19.02;13.70;;;11.50;99.90;;;;;;4939795;29;20046;-87
2021/12/31 06:08:39;;;;;;;12.57;11.35;;;11.50;99.90;;;;;;4957241;29;20038;-87
2021/12/31 06:11:07;;;;;;;19.77;15.00;;;11.40;99.90;;;;;;4939231;29;20050;-85
2021/12/31 06:13:33;;;;;;;10.88;9.02;;;11.40;99.90;;;;;;4940121;29;20036;-86
2021/12/31 06:15:59;;;;;;;9.70;7.65;;;11.40;99.90;;;;;;4956077;29;20027;-86
2021/12/31 06:18:26;;;;;;;29.90;26.77;;;11.40;99.90;;;;;;4956474;29;20042;-86
2021/12/31 06:20:53;;;;;;;16.63;10.82;;;11.40;99.90;;;;;;4957195;29;20047;-86
2021/12/31 06:23:19;;;;;;;17.65;13.27;;;11.20;99.90;;;;;;4958185;29;20489;-86
2021/12/31 06:25:45;;;;;;;6.85;4.47;;;11.10;99.90;;;;;;4963477;29;20035;-86
2021/12/31 06:28:11;;;;;;;6.88;5.07;;;11.00;99.90;;;;;;4942226;29;20038;-86
2021/12/31 06:30:37;;;;;;;10.50;7.53;;;10.90;99.90;;;;;;4960229;29;20051;-86
2021/12/31 06:33:04;;;;;;;3.35;3.05;;;10.80;99.90;;;;;;4939637;29;20520;-86
2021/12/31 06:35:30;;;;;;;12.57;6.90;;;10.70;99.90;;;;;;4957270;29;20388;-86
2021/12/31 06:37:58;;;;;;;6.93;5.05;;;10.70;99.90;;;;;;4958989;29;20035;-86
2021/12/31 06:40:25;;;;;;;4.22;3.30;;;10.60;99.90;;;;;;4957937;29;20038;-86
2021/12/31 06:42:51;;;;;;;27.30;24.42;;;10.50;99.90;;;;;;4957643;29;20047;-85
2021/12/31 06:45:18;;;;;;;6.88;5.30;;;10.60;99.90;;;;;;4958625;29;20667;-85
2021/12/31 06:47:44;;;;;;;11.98;9.85;;;10.50;99.90;;;;;;4958089;29;20043;-85
2021/12/31 06:50:10;;;;;;;7.45;6.75;;;10.50;99.90;;;;;;4935628;29;20052;-86
2021/12/31 06:52:38;;;;;;;22.60;20.20;;;10.40;99.90;;;;;;4937204;29;20043;-86
2021/12/31 06:55:08;;;;;;;65.63;58.92;;;10.40;99.90;;;;;;4937004;29;20028;-86
2021/12/31 06:57:35;;;;;;;15.23;11.63;;;10.30;99.90;;;;;;4937516;29;20055;-85
2021/12/31 07:00:04;;;;;;;83.93;74.47;;;10.20;99.90;;;;;;4936796;29;20492;-85
2021/12/31 07:02:30;;;;;;;18.33;12.68;;;10.20;99.90;;;;;;4936237;29;20405;-87
2021/12/31 07:04:56;;;;;;;23.55;21.20;;;10.10;99.90;;;;;;4937674;29;20042;-86
2021/12/31 07:07:22;;;;;;;159.35;144.70;;;10.10;99.90;;;;;;4934020;29;20413;-86
2021/12/31 07:09:49;;;;;;;22.55;17.15;;;10.00;99.90;;;;;;4918313;29;20040;-86
2021/12/31 07:12:15;;;;;;;14.95;8.07;;;9.90;99.90;;;;;;4919141;29;20394;-86
2021/12/31 07:14:41;;;;;;;20.48;15.05;;;9.90;99.90;;;;;;4918647;29;20052;-86
2021/12/31 07:17:08;;;;;;;14.77;13.38;;;9.90;99.90;;;;;;4918318;29;20047;-87
2021/12/31 07:19:34;;;;;;;11.93;9.98;;;9.80;99.90;;;;;;4917886;29;20047;-87
2021/12/31 07:22:01;;;;;;;10.82;9.93;;;9.80;99.90;;;;;;4932453;29;20044;-84
2021/12/31 07:24:27;;;;;;;14.10;12.65;;;9.70;99.90;;;;;;4917978;29;20039;-86
2021/12/31 07:26:53;;;;;;;15.80;12.63;;;9.70;99.90;;;;;;4918435;29;20047;-84
2021/12/31 07:29:19;;;;;;;16.13;13.98;;;9.80;99.90;;;;;;4917471;29;20032;-87
2021/12/31 07:31:45;;;;;;;22.52;10.68;;;9.70;99.90;;;;;;4918093;29;20036;-87
2021/12/31 07:34:12;;;;;;;9.32;6.78;;;9.70;99.90;;;;;;4917998;29;20036;-88
2021/12/31 07:36:38;;;;;;;7.15;6.43;;;9.70;99.90;;;;;;4920567;29;20036;-88
2021/12/31 07:39:07;;;;;;;10.13;7.30;;;9.70;99.90;;;;;;4917834;29;20039;-87
2021/12/31 07:41:34;;;;;;;8.50;7.68;;;9.70;99.90;;;;;;4918956;29;20502;-87
2021/12/31 07:44:01;;;;;;;8.75;5.70;;;9.70;99.90;;;;;;4920413;29;20032;-87
2021/12/31 07:46:27;;;;;;;7.38;5.88;;;9.70;99.90;;;;;;4932411;29;20020;-85
2021/12/31 07:48:54;;;;;;;7.32;5.65;;;9.60;99.90;;;;;;4934351;28;20386;-86
2021/12/31 07:51:20;;;;;;;7.22;5.50;;;9.60;99.90;;;;;;4936339;29;20044;-86
2021/12/31 07:53:46;;;;;;;8.13;6.45;;;9.50;99.90;;;;;;4936737;29;20046;-86
2021/12/31 07:56:12;;;;;;;8.45;5.85;;;9.50;99.90;;;;;;4936482;29;20039;-87
2021/12/31 07:58:39;;;;;;;7.22;6.55;;;9.50;99.90;;;;;;4941354;29;20035;-86
2021/12/31 08:01:05;;;;;;;9.00;6.88;;;9.50;99.90;;;;;;4955811;29;20035;-86
2021/12/31 08:03:33;;;;;;;11.45;10.20;;;9.50;99.90;;;;;;4967731;28;20026;-85
2021/12/31 08:05:59;;;;;;;12.43;8.18;;;9.50;99.90;;;;;;4976198;28;20043;-84
2021/12/31 08:08:25;;;;;;;10.23;8.98;;;9.50;99.90;;;;;;4946716;29;20039;-87
2021/12/31 08:10:51;;;;;;;10.05;9.15;;;9.50;99.90;;;;;;4955074;29;20035;-85
2021/12/31 08:13:17;;;;;;;11.20;10.10;;;9.50;99.90;;;;;;4954150;29;20041;-86
2021/12/31 08:15:44;;;;;;;11.68;8.38;;;9.60;99.90;;;;;;4954895;29;20039;-86
2021/12/31 08:18:10;;;;;;;12.48;9.80;;;9.60;99.90;;;;;;4954692;29;20365;-77
2021/12/31 08:20:37;;;;;;;10.35;9.32;;;9.60;99.90;;;;;;4954146;29;20027;-79
2021/12/31 08:23:07;;;;;;;9.77;8.13;;;9.70;99.90;;;;;;4954094;29;20035;-78
2021/12/31 08:25:33;;;;;;;35.35;32.03;;;9.70;99.90;;;;;;4936793;29;20035;-85
2021/12/31 08:28:00;;;;;;;23.85;14.82;;;9.70;99.90;;;;;;4954186;29;20027;-77
2021/12/31 08:30:26;;;;;;;15.80;14.32;;;9.80;99.90;;;;;;4954076;28;20469;-77
2021/12/31 08:32:52;;;;;;;18.23;16.40;;;9.80;99.90;;;;;;4967569;28;20050;-76
2021/12/31 08:35:18;;;;;;;41.50;37.50;;;9.80;99.90;;;;;;4972584;28;20042;-77
2021/12/31 08:37:44;;;;;;;16.17;14.57;;;9.90;99.90;;;;;;4973524;28;20031;-76
2021/12/31 08:40:11;;;;;;;23.52;21.25;;;9.90;99.90;;;;;;4972575;28;20046;-77
2021/12/31 08:42:40;;;;;;;11.68;8.13;;;9.90;99.90;;;;;;4973469;28;20055;-77
2021/12/31 08:45:07;;;;;;;12.55;11.25;;;10.00;99.90;;;;;;4972581;28;20384;-76
2021/12/31 08:47:33;;;;;;;14.25;12.80;;;10.10;99.90;;;;;;4973442;28;20062;-76
2021/12/31 08:49:59;;;;;;;25.00;22.42;;;10.10;99.90;;;;;;4973359;28;20050;-76
2021/12/31 08:52:25;;;;;;;31.60;28.05;;;10.20;99.90;;;;;;4972772;28;20031;-77
2021/12/31 08:54:52;;;;;;;17.25;15.48;;;10.30;99.90;;;;;;4973048;28;20038;-77
2021/12/31 08:57:18;;;;;;;11.07;9.98;;;10.40;99.90;;;;;;4972610;28;20445;-78
2021/12/31 08:59:44;;;;;;;13.02;11.40;;;10.40;99.90;;;;;;4972130;28;20050;-75
2021/12/31 09:02:11;;;;;;;22.80;20.58;;;10.60;99.90;;;;;;4973304;28;20065;-74
2021/12/31 09:04:38;;;;;;;7.88;7.18;;;10.70;99.90;;;;;;4973498;28;20034;-75
2021/12/31 09:07:04;;;;;;;7.20;6.55;;;10.80;99.90;;;;;;4974345;28;20042;-74
2021/12/31 09:09:30;;;;;;;13.65;8.90;;;10.80;99.90;;;;;;4973186;28;20039;-74
2021/12/31 09:11:56;;;;;;;8.10;6.45;;;10.90;99.90;;;;;;4973834;28;20035;-74
2021/12/31 09:14:23;;;;;;;11.02;6.95;;;10.90;99.90;;;;;;4973285;28;20031;-75
2021/12/31 09:16:51;;;;;;;6.60;5.95;;;11.00;99.90;;;;;;4973258;28;20035;-75
2021/12/31 09:19:17;;;;;;;7.35;6.65;;;11.10;99.90;;;;;;4972939;28;20496;-74
2021/12/31 09:21:43;;;;;;;7.72;7.03;;;11.10;99.90;;;;;;4973119;28;20046;-74
2021/12/31 09:24:10;;;;;;;7.63;6.18;;;11.20;99.90;;;;;;4941666;28;20038;-74
2021/12/31 09:26:36;;;;;;;6.53;5.50;;;11.20;99.90;;;;;;4934506;29;20047;-75
2021/12/31 09:29:03;;;;;;;9.18;6.57;;;11.20;99.90;;;;;;4916935;29;20032;-74
2021/12/31 09:31:29;;;;;;;6.82;5.40;;;11.30;99.90;;;;;;4942456;29;20043;-76
2021/12/31 09:33:56;;;;;;;6.13;5.53;;;11.40;99.90;;;;;;4953079;29;20042;-74
2021/12/31 09:36:23;;;;;;;6.07;5.55;;;11.40;99.90;;;;;;4953837;28;20035;-75
2021/12/31 09:38:49;;;;;;;20.58;6.47;;;11.50;99.90;;;;;;4957430;29;20035;-74
2021/12/31 09:41:15;;;;;;;8.73;6.55;;;11.50;99.90;;;;;;4956528;29;20042;-76
2021/12/31 09:43:49;;;;;;;8.05;6.60;;;11.60;99.90;;;;;;4939602;29;20043;-74
2021/12/31 09:46:16;;;;;;;6.47;5.80;;;11.60;99.90;;;;;;4956923;29;20031;-75
2021/12/31 09:48:42;;;;;;;6.25;5.53;;;11.70;99.90;;;;;;4956943;29;20039;-74
2021/12/31 09:51:08;;;;;;;6.10;5.28;;;11.70;99.90;;;;;;4956898;29;20047;-74
2021/12/31 09:53:35;;;;;;;6.53;5.93;;;11.80;99.90;;;;;;4939803;29;20047;-74
2021/12/31 09:56:01;;;;;;;6.80;5.00;;;11.80;99.90;;;;;;4957112;29;20027;-75
2021/12/31 09:58:27;;;;;;;6.88;5.35;;;11.90;99.90;;;;;;4956640;29;20046;-74
2021/12/31 10:00:57;;;;;;;7.53;5.18;;;11.90;99.90;;;;;;4957233;29;20461;-74
2021/12/31 10:03:26;;;;;;;6.05;5.20;;;12.00;99.90;;;;;;4956246;29;20046;-74
2021/12/31 10:05:56;;;;;;;9.55;5.85;;;12.00;99.90;;;;;;4956852;29;20031;-74
2021/12/31 10:08:24;;;;;;;6.18;5.57;;;12.10;99.90;;;;;;4956692;29;20054;-74
2021/12/31 10:11:14;;;;;;;9.57;5.47;;;12.10;99.90;;;;;;4957224;29;20031;-75
2021/12/31 10:13:44;;;;;;;7.57;6.22;;;12.10;99.90;;;;;;4957041;29;20050;-74
2021/12/31 10:16:28;;;;;;;6.70;5.75;;;12.10;99.90;;;;;;4956174;29;20035;-83
2021/12/31 10:19:11;;;;;;;7.72;5.68;;;12.20;99.90;;;;;;4956671;29;20027;-74
2021/12/31 10:21:41;;;;;;;6.53;5.85;;;12.10;99.90;;;;;;4939678;29;20051;-75
2021/12/31 10:24:27;;;;;;;6.95;6.03;;;12.10;99.90;;;;;;4956636;29;20496;-75
2021/12/31 10:26:58;;;;;;;7.40;6.43;;;12.10;99.90;;;;;;4956300;29;20473;-75
2021/12/31 10:29:26;;;;;;;7.03;6.43;;;12.20;99.90;;;;;;4938690;29;20054;-76
2021/12/31 10:31:53;;;;;;;7.05;6.35;;;12.30;99.90;;;;;;4956317;29;20035;-75
2021/12/31 10:34:36;;;;;;;7.72;6.95;;;12.30;99.90;;;;;;4955579;29;20031;-74
2021/12/31 10:37:17;;;;;;;9.80;7.03;;;12.20;99.90;;;;;;4956624;29;20480;-75
2021/12/31 10:39:44;;;;;;;7.75;7.05;;;12.40;99.90;;;;;;4956177;29;20035;-75
2021/12/31 10:42:14;;;;;;;6.82;6.20;;;12.40;99.90;;;;;;4956180;29;20373;-75
2021/12/31 10:44:46;;;;;;;7.72;6.32;;;12.40;99.90;;;;;;4956905;29;20038;-75
2021/12/31 10:47:38;;;;;;;10.00;6.68;;;12.30;99.90;;;;;;4956057;29;20039;-85
2021/12/31 10:50:04;;;;;;;8.00;5.43;;;12.50;99.90;;;;;;4954764;29;20434;-75
2021/12/31 10:52:41;;;;;;;7.05;5.90;;;12.50;99.90;;;;;;4955596;29;20473;-75
2021/12/31 10:57:51;;;;;;;8.13;5.05;;;12.60;99.90;;;;;;4955856;29;20031;-75
2021/12/31 11:00:19;;;;;;;7.60;5.25;;;12.60;99.90;;;;;;4955154;29;20046;-75
2021/12/31 11:02:47;;;;;;;7.53;4.68;;;12.50;99.90;;;;;;4955759;29;20051;-75
2021/12/31 11:05:17;;;;;;;5.72;4.50;;;12.50;99.90;;;;;;4955188;29;20362;-80
2021/12/31 11:07:44;;;;;;;12.57;3.60;;;12.60;99.90;;;;;;4955816;29;20048;-75
2021/12/31 11:10:11;;;;;;;7.40;4.53;;;12.90;99.90;;;;;;4955223;29;20066;-75
2021/12/31 11:12:38;;;;;;;5.28;4.72;;;13.00;99.90;;;;;;4955166;29;20039;-74
2021/12/31 11:15:05;;;;;;;6.82;5.40;;;12.90;99.90;;;;;;4955507;29;20039;-75
2021/12/31 11:17:32;;;;;;;4.55;4.15;;;12.80;99.90;;;;;;4954707;29;20051;-74
2021/12/31 11:19:59;;;;;;;8.18;5.28;;;12.70;99.90;;;;;;4955303;29;20027;-75
2021/12/31 11:22:28;;;;;;;5.95;5.22;;;12.60;99.90;;;;;;4954755;29;20047;-75
2021/12/31 11:25:17;;;;;;;10.20;4.72;;;12.70;99.90;;;;;;4955258;29;20027;-75
2021/12/31 11:27:47;;;;;;;6.53;5.35;;;12.80;99.90;;;;;;4955240;29;20050;-76
2021/12/31 11:30:39;;;;;;;6.45;5.85;;;12.70;99.90;;;;;;4955547;29;20039;-75
2021/12/31 11:33:11;;;;;;;8.10;5.93;;;12.70;99.90;;;;;;4955329;29;20389;-75
2021/12/31 11:35:43;;;;;;;5.60;4.72;;;12.80;99.90;;;;;;4937714;29;20465;-74
2021/12/31 11:38:29;;;;;;;7.55;4.95;;;12.80;99.90;;;;;;4954758;29;20043;-74
2021/12/31 11:41:03;;;;;;;5.20;4.63;;;12.80;99.90;;;;;;4953665;29;20062;-75
2021/12/31 11:43:31;;;;;;;4.38;3.97;;;12.80;99.90;;;;;;4954268;29;20039;-75
2021/12/31 11:46:10;;;;;;;5.95;4.95;;;12.80;99.90;;;;;;4955353;29;20043;-74
2021/12/31 11:48:48;;;;;;;7.35;4.45;;;12.80;99.90;;;;;;4954943;29;20089;-75
2021/12/31 11:51:19;;;;;;;7.65;3.85;;;12.80;99.90;;;;;;4936111;29;20047;-74
2021/12/31 11:53:59;;;;;;;5.45;4.05;;;12.80;99.90;;;;;;4935911;29;20035;-75
2021/12/31 11:56:34;;;;;;;5.82;5.00;;;12.70;99.90;;;;;;4935058;29;20027;-75
2021/12/31 11:59:16;;;;;;;5.05;4.55;;;12.90;99.90;;;;;;4935579;29;20458;-75
2021/12/31 12:01:47;;;;;;;8.00;4.53;;;12.90;99.90;;;;;;4934874;29;20043;-74
2021/12/31 12:04:31;;;;;;;9.00;4.95;;;12.60;99.90;;;;;;4935470;29;20028;-74
2021/12/31 12:07:09;;;;;;;6.32;4.55;;;12.50;99.90;;;;;;4935572;29;20054;-74
2021/12/31 12:09:35;;;;;;;5.47;4.25;;;12.60;99.90;;;;;;4935155;29;20027;-74
2021/12/31 12:12:07;;;;;;;5.93;4.47;;;12.60;99.90;;;;;;4935444;29;20035;-75
2021/12/31 12:14:54;;;;;;;5.82;5.13;;;12.60;99.90;;;;;;4934641;29;20039;-74
2021/12/31 12:17:29;;;;;;;9.57;7.35;;;12.60;99.90;;;;;;4934941;29;20048;-75
2021/12/31 12:20:01;;;;;;;10.40;8.85;;;12.70;99.90;;;;;;4935305;29;20028;-75
2021/12/31 12:22:33;;;;;;;8.18;5.95;;;12.70;99.90;;;;;;4934876;29;20051;-74
2021/12/31 12:25:03;;;;;;;5.15;4.32;;;12.70;99.90;;;;;;4935170;29;20031;-75
2021/12/31 12:27:29;;;;;;;6.00;5.22;;;12.60;99.90;;;;;;4934818;29;20031;-74
2021/12/31 12:29:59;;;;;;;11.82;5.38;;;12.60;99.90;;;;;;4933989;29;20446;-74
2021/12/31 12:32:52;;;;;;;7.13;5.50;;;12.40;99.90;;;;;;4934576;29;20393;-75
2021/12/31 12:35:28;;;;;;;10.10;5.10;;;12.40;99.90;;;;;;4934681;29;20032;-75
2021/12/31 12:38:01;;;;;;;8.27;5.10;;;12.30;99.90;;;;;;4935116;29;20031;-75
2021/12/31 12:40:56;;;;;;;11.43;4.90;;;12.30;99.90;;;;;;4934558;29;20035;-75
2021/12/31 12:43:29;;;;;;;5.88;5.30;;;12.30;99.90;;;;;;4934400;29;20405;-75
2021/12/31 12:45:58;;;;;;;6.65;5.15;;;12.40;99.90;;;;;;4935136;29;20039;-75
2021/12/31 12:48:39;;;;;;;5.97;5.18;;;12.40;99.90;;;;;;4935113;29;20050;-75
2021/12/31 12:51:13;;;;;;;6.53;4.82;;;12.40;99.90;;;;;;4954282;29;20054;-74
2021/12/31 12:53:45;;;;;;;4.65;4.25;;;12.30;99.90;;;;;;4953815;29;20581;-75
2021/12/31 12:56:21;;;;;;;6.60;5.30;;;12.30;99.90;;;;;;4953962;29;20031;-75